Time;durP1;ratioP1;P1;durP2;ratioP2;P2;SDS_P1;SDS_P2;PMS_P1;PMS_P2;Temp;Humidity;BMP_temperature;BMP_pressure;BME280_temperature;BME280_humidity;BME280_pressure;Samples;Min_cycle;Max_cycle;Signal;HPM_P1;HPM_P2
2023/10/31 00:00:18;;;;;;;13.05;6.43;;;;;;;;;;5117908;28;20035;-72
2023/10/31 00:02:44;;;;;;;16.35;6.30;;;;;;;;;;5118855;28;20054;-73
2023/10/31 00:05:10;;;;;;;14.48;5.68;;;;;;;;;;5119354;28;20020;-71
2023/10/31 00:07:36;;;;;;;14.52;5.85;;;;;;;;;;5119373;28;20064;-72
2023/10/31 00:10:02;;;;;;;12.52;5.95;;;;;;;;;;5118493;28;20023;-72
2023/10/31 00:12:28;;;;;;;13.05;5.72;;;;;;;;;;5102247;28;20039;-73
2023/10/31 00:14:54;;;;;;;13.50;6.55;;;;;;;;;;5100943;28;20020;-72
2023/10/31 00:17:20;;;;;;;15.35;6.70;;;;;;;;;;5099832;28;20055;-73
2023/10/31 00:19:46;;;;;;;13.23;6.63;;;;;;;;;;5096607;28;20539;-72
2023/10/31 00:22:12;;;;;;;16.77;6.35;;;;;;;;;;5092235;28;20032;-73
2023/10/31 00:24:38;;;;;;;11.15;6.93;;;;;;;;;;5092998;28;20107;-73
2023/10/31 00:27:04;;;;;;;14.65;6.53;;;;;;;;;;5093444;28;20024;-73
2023/10/31 00:29:30;;;;;;;12.55;6.45;;;;;;;;;;5092834;28;20073;-74
2023/10/31 00:31:56;;;;;;;18.23;7.03;;;;;;;;;;5091415;28;20391;-72
2023/10/31 00:34:22;;;;;;;12.57;6.20;;;;;;;;;;5092894;28;20020;-72
2023/10/31 00:36:48;;;;;;;16.30;7.30;;;;;;;;;;5093059;28;20055;-74
2023/10/31 00:39:14;;;;;;;16.60;7.13;;;;;;;;;;5093011;28;20028;-73
2023/10/31 00:41:45;;;;;;;15.68;7.05;;;;;;;;;;5092429;28;20048;-73
2023/10/31 00:44:11;;;;;;;17.73;7.35;;;;;;;;;;5092766;28;20055;-73
2023/10/31 00:46:37;;;;;;;13.13;7.30;;;;;;;;;;5092744;28;20056;-74
2023/10/31 00:49:03;;;;;;;17.67;7.32;;;;;;;;;;5092600;28;20069;-73
2023/10/31 00:51:29;;;;;;;14.20;7.00;;;;;;;;;;5093058;28;20031;-73
2023/10/31 00:53:55;;;;;;;17.02;8.05;;;;;;;;;;5093976;28;20024;-72
2023/10/31 00:56:21;;;;;;;17.50;7.75;;;;;;;;;;5092069;28;20266;-73
2023/10/31 00:58:47;;;;;;;14.48;8.10;;;;;;;;;;5092410;28;20283;-73
2023/10/31 01:01:14;;;;;;;17.98;8.57;;;;;;;;;;5092241;28;20039;-72
2023/10/31 01:03:40;;;;;;;17.52;8.35;;;;;;;;;;5092244;28;20425;-72
2023/10/31 01:06:06;;;;;;;21.92;8.80;;;;;;;;;;5092358;28;20020;-72
2023/10/31 01:08:32;;;;;;;13.30;8.25;;;;;;;;;;5092213;28;20091;-73
2023/10/31 01:10:58;;;;;;;22.90;9.15;;;;;;;;;;5092179;28;20479;-72
2023/10/31 01:13:24;;;;;;;15.85;8.90;;;;;;;;;;5091861;28;20020;-73
2023/10/31 01:15:50;;;;;;;18.20;8.80;;;;;;;;;;5092106;28;20103;-73
2023/10/31 01:18:16;;;;;;;16.50;8.40;;;;;;;;;;5092051;28;20439;-73
2023/10/31 01:20:42;;;;;;;17.90;9.32;;;;;;;;;;5092151;28;20028;-72
2023/10/31 01:23:08;;;;;;;16.85;9.65;;;;;;;;;;5091914;28;20020;-73
2023/10/31 01:25:34;;;;;;;12.48;8.80;;;;;;;;;;5092021;28;20032;-73
2023/10/31 01:28:00;;;;;;;14.13;9.32;;;;;;;;;;5092529;28;20043;-73
2023/10/31 01:30:26;;;;;;;20.02;9.43;;;;;;;;;;5090648;28;20012;-73
2023/10/31 01:32:52;;;;;;;20.85;10.05;;;;;;;;;;5091819;28;20182;-72
2023/10/31 01:35:18;;;;;;;20.33;9.68;;;;;;;;;;5094974;28;20024;-73
2023/10/31 01:37:44;;;;;;;15.98;10.02;;;;;;;;;;5096309;28;20475;-72
2023/10/31 01:40:13;;;;;;;15.48;10.02;;;;;;;;;;5096114;28;20031;-72
2023/10/31 01:42:39;;;;;;;17.80;10.75;;;;;;;;;;5095910;28;20081;-72
2023/10/31 01:45:06;;;;;;;17.40;10.18;;;;;;;;;;5096099;28;20032;-73
2023/10/31 01:47:32;;;;;;;21.38;10.63;;;;;;;;;;5097069;28;20046;-74
2023/10/31 01:49:59;;;;;;;17.65;10.68;;;;;;;;;;5096197;28;20663;-73
2023/10/31 01:52:25;;;;;;;17.70;11.07;;;;;;;;;;5096113;28;20016;-73
2023/10/31 01:54:51;;;;;;;20.95;10.95;;;;;;;;;;5096769;28;20035;-72
2023/10/31 01:57:19;;;;;;;22.75;11.23;;;;;;;;;;5095905;28;20077;-72
2023/10/31 01:59:45;;;;;;;18.38;10.18;;;;;;;;;;5096919;28;20108;-73
2023/10/31 02:02:11;;;;;;;14.57;9.48;;;;;;;;;;5095396;28;20024;-72
2023/10/31 02:04:37;;;;;;;13.60;9.85;;;;;;;;;;5095779;28;20073;-73
2023/10/31 02:07:03;;;;;;;17.83;10.50;;;;;;;;;;5095662;28;20050;-73
2023/10/31 02:09:30;;;;;;;20.95;10.30;;;;;;;;;;5096054;28;20028;-73
2023/10/31 02:11:56;;;;;;;16.67;10.45;;;;;;;;;;5095287;28;20023;-72
2023/10/31 02:14:25;;;;;;;14.80;9.70;;;;;;;;;;5095610;28;20024;-72
2023/10/31 02:16:51;;;;;;;16.75;10.05;;;;;;;;;;5095009;28;20020;-72
2023/10/31 02:19:21;;;;;;;14.00;10.02;;;;;;;;;;5095592;28;20024;-72
2023/10/31 02:21:47;;;;;;;16.88;9.73;;;;;;;;;;5095445;28;20028;-73
2023/10/31 02:24:13;;;;;;;13.38;8.48;;;;;;;;;;5095436;28;20111;-73
2023/10/31 02:26:39;;;;;;;14.63;9.40;;;;;;;;;;5095320;28;20073;-72
2023/10/31 02:29:06;;;;;;;13.73;9.77;;;;;;;;;;5095288;28;20024;-73
2023/10/31 02:31:32;;;;;;;22.92;9.45;;;;;;;;;;5094868;28;20099;-72
2023/10/31 02:33:58;;;;;;;14.02;8.43;;;;;;;;;;5094966;28;20127;-72
2023/10/31 02:36:24;;;;;;;12.23;8.98;;;;;;;;;;5095205;28;20123;-72
2023/10/31 02:38:50;;;;;;;11.95;8.57;;;;;;;;;;5095039;28;20051;-71
2023/10/31 02:41:16;;;;;;;11.07;7.60;;;;;;;;;;5093561;28;20020;-72
2023/10/31 02:43:42;;;;;;;14.65;7.40;;;;;;;;;;5094812;28;20024;-72
2023/10/31 02:46:12;;;;;;;13.05;8.38;;;;;;;;;;5094800;28;20023;-73
2023/10/31 02:48:39;;;;;;;14.07;8.10;;;;;;;;;;5094909;28;20482;-73
2023/10/31 02:51:05;;;;;;;15.50;7.53;;;;;;;;;;5094684;28;20024;-73
2023/10/31 02:53:31;;;;;;;12.32;7.20;;;;;;;;;;5094766;28;20024;-72
2023/10/31 02:55:57;;;;;;;16.10;7.45;;;;;;;;;;5094726;28;20028;-73
2023/10/31 02:58:23;;;;;;;12.55;7.88;;;;;;;;;;5094437;28;20444;-73
2023/10/31 03:00:49;;;;;;;10.93;7.35;;;;;;;;;;5094320;28;20024;-73
2023/10/31 03:03:15;;;;;;;16.00;8.07;;;;;;;;;;5094187;28;21203;-73
2023/10/31 03:05:41;;;;;;;12.88;7.72;;;;;;;;;;5094435;28;20073;-74
2023/10/31 03:08:10;;;;;;;11.82;7.47;;;;;;;;;;5094540;28;20027;-73
2023/10/31 03:10:36;;;;;;;13.35;8.40;;;;;;;;;;5094620;28;20131;-73
2023/10/31 03:13:02;;;;;;;11.93;7.70;;;;;;;;;;5094179;28;20490;-73
2023/10/31 03:15:28;;;;;;;10.23;6.97;;;;;;;;;;5094339;28;20032;-73
2023/10/31 03:17:54;;;;;;;9.80;7.80;;;;;;;;;;5095912;28;20036;-73
2023/10/31 03:20:20;;;;;;;13.48;8.70;;;;;;;;;;5095939;28;20024;-72
2023/10/31 03:22:46;;;;;;;13.57;7.97;;;;;;;;;;5095991;28;20028;-73
2023/10/31 03:25:12;;;;;;;12.80;8.25;;;;;;;;;;5094736;28;20024;-73
2023/10/31 03:27:38;;;;;;;13.90;8.13;;;;;;;;;;5094490;28;20701;-73
2023/10/31 03:30:04;;;;;;;11.57;7.65;;;;;;;;;;5094051;28;20025;-73
2023/10/31 03:32:30;;;;;;;14.18;8.13;;;;;;;;;;5094030;28;20106;-73
2023/10/31 03:34:56;;;;;;;12.25;7.40;;;;;;;;;;5092842;28;20059;-76
2023/10/31 03:37:22;;;;;;;10.55;6.93;;;;;;;;;;5092676;28;20031;-74
2023/10/31 03:39:48;;;;;;;10.45;7.20;;;;;;;;;;5094044;28;20426;-73
2023/10/31 03:42:14;;;;;;;13.32;7.90;;;;;;;;;;5093613;28;20059;-72
2023/10/31 03:44:40;;;;;;;11.10;7.45;;;;;;;;;;5093687;28;20487;-72
2023/10/31 03:47:06;;;;;;;13.13;7.80;;;;;;;;;;5093690;28;20035;-73
2023/10/31 03:49:32;;;;;;;13.90;8.38;;;;;;;;;;5093637;28;20426;-73
2023/10/31 03:51:58;;;;;;;14.23;8.32;;;;;;;;;;5093363;28;20055;-72
2023/10/31 03:54:24;;;;;;;15.25;9.02;;;;;;;;;;5094291;28;20055;-73
2023/10/31 03:56:50;;;;;;;11.35;7.45;;;;;;;;;;5092629;28;20024;-72
2023/10/31 03:59:16;;;;;;;11.18;8.20;;;;;;;;;;5093539;28;20020;-74
2023/10/31 04:01:42;;;;;;;10.70;7.65;;;;;;;;;;5093264;28;20382;-74
2023/10/31 04:04:08;;;;;;;11.57;8.02;;;;;;;;;;5093650;28;20085;-74
2023/10/31 04:06:34;;;;;;;13.75;8.63;;;;;;;;;;5093580;28;20028;-73
2023/10/31 04:09:00;;;;;;;12.30;7.32;;;;;;;;;;5093464;28;20391;-72
2023/10/31 04:11:26;;;;;;;12.05;8.38;;;;;;;;;;5093566;28;20024;-74
2023/10/31 04:13:52;;;;;;;11.32;7.82;;;;;;;;;;5093872;28;20024;-74
2023/10/31 04:16:18;;;;;;;10.45;7.47;;;;;;;;;;5093965;28;20073;-73
2023/10/31 04:18:44;;;;;;;14.55;8.00;;;;;;;;;;5094974;28;20024;-73
2023/10/31 04:21:10;;;;;;;10.00;7.15;;;;;;;;;;5098095;28;20031;-75
2023/10/31 04:23:36;;;;;;;10.43;7.30;;;;;;;;;;5102321;28;20064;-73
2023/10/31 04:26:02;;;;;;;13.40;7.57;;;;;;;;;;5110608;28;20076;-73
2023/10/31 04:28:28;;;;;;;13.95;6.85;;;;;;;;;;5117308;28;20035;-72
2023/10/31 04:30:54;;;;;;;11.98;6.82;;;;;;;;;;5118253;28;20016;-74
2023/10/31 04:33:20;;;;;;;14.98;7.57;;;;;;;;;;5106685;28;20064;-73
2023/10/31 04:35:46;;;;;;;13.95;7.13;;;;;;;;;;5102062;28;20035;-74
2023/10/31 04:38:11;;;;;;;15.32;7.25;;;;;;;;;;5103094;28;20020;-73
2023/10/31 04:40:37;;;;;;;11.75;7.35;;;;;;;;;;5102063;28;20510;-72
2023/10/31 04:43:03;;;;;;;20.42;7.88;;;;;;;;;;5105048;28;20115;-73
2023/10/31 04:45:29;;;;;;;12.02;7.80;;;;;;;;;;5096626;28;20035;-73
2023/10/31 04:47:55;;;;;;;9.65;7.20;;;;;;;;;;5093142;28;20016;-73
2023/10/31 04:50:21;;;;;;;13.88;8.70;;;;;;;;;;5093085;28;20089;-74
2023/10/31 04:52:47;;;;;;;14.77;8.50;;;;;;;;;;5092193;28;20032;-73
2023/10/31 04:55:13;;;;;;;11.32;8.05;;;;;;;;;;5092421;28;20107;-74
2023/10/31 04:57:39;;;;;;;12.50;8.45;;;;;;;;;;5091169;28;20063;-73
2023/10/31 05:00:07;;;;;;;12.10;8.77;;;;;;;;;;5092454;28;20055;-73
2023/10/31 05:02:33;;;;;;;16.42;8.98;;;;;;;;;;5091847;28;20028;-73
2023/10/31 05:04:59;;;;;;;17.90;9.95;;;;;;;;;;5092324;28;20496;-73
2023/10/31 05:07:25;;;;;;;13.27;9.85;;;;;;;;;;5092234;28;20016;-72
2023/10/31 05:09:51;;;;;;;13.80;10.25;;;;;;;;;;5092434;28;20023;-73
2023/10/31 05:12:17;;;;;;;14.75;9.60;;;;;;;;;;5090869;28;20032;-73
2023/10/31 05:14:43;;;;;;;15.13;10.10;;;;;;;;;;5092494;28;20447;-73
2023/10/31 05:17:09;;;;;;;13.02;9.70;;;;;;;;;;5091052;28;20046;-72
2023/10/31 05:19:35;;;;;;;16.83;11.18;;;;;;;;;;5092245;28;20396;-72
2023/10/31 05:22:01;;;;;;;14.68;9.75;;;;;;;;;;5091755;28;20054;-73
2023/10/31 05:24:27;;;;;;;15.95;11.52;;;;;;;;;;5092234;28;20028;-72
2023/10/31 05:26:53;;;;;;;15.80;11.32;;;;;;;;;;5092042;28;20028;-72
2023/10/31 05:29:19;;;;;;;17.45;11.57;;;;;;;;;;5092221;28;20046;-73
2023/10/31 05:31:45;;;;;;;20.33;11.63;;;;;;;;;;5090649;28;20021;-73
2023/10/31 05:34:11;;;;;;;15.88;11.05;;;;;;;;;;5092128;28;20434;-73
2023/10/31 05:36:37;;;;;;;15.15;10.52;;;;;;;;;;5092138;28;20060;-75
2023/10/31 05:39:04;;;;;;;17.90;11.60;;;;;;;;;;5092372;28;20463;-73
2023/10/31 05:41:30;;;;;;;18.83;11.48;;;;;;;;;;5091675;28;20067;-72
2023/10/31 05:43:56;;;;;;;15.52;11.27;;;;;;;;;;5091704;28;20035;-73
2023/10/31 05:46:22;;;;;;;16.40;12.00;;;;;;;;;;5091936;28;20021;-73
2023/10/31 05:48:48;;;;;;;18.90;11.80;;;;;;;;;;5091945;28;20024;-73
2023/10/31 05:51:15;;;;;;;18.35;13.02;;;;;;;;;;5091844;28;20048;-74
2023/10/31 05:53:42;;;;;;;18.10;12.98;;;;;;;;;;5091731;28;20035;-73
2023/10/31 05:56:09;;;;;;;15.80;11.88;;;;;;;;;;5091800;28;20364;-74
2023/10/31 05:58:35;;;;;;;17.48;12.40;;;;;;;;;;5091942;28;20115;-73
2023/10/31 06:01:01;;;;;;;19.08;13.15;;;;;;;;;;5091842;28;20515;-72
2023/10/31 06:03:27;;;;;;;17.55;11.98;;;;;;;;;;5091509;28;20059;-73
2023/10/31 06:05:53;;;;;;;18.33;13.30;;;;;;;;;;5091835;28;20081;-72
2023/10/31 06:08:19;;;;;;;18.50;12.48;;;;;;;;;;5091947;28;20032;-72
2023/10/31 06:10:44;;;;;;;19.98;13.25;;;;;;;;;;5091760;28;20117;-73
2023/10/31 06:13:10;;;;;;;17.00;12.90;;;;;;;;;;5091644;28;20024;-72
2023/10/31 06:15:36;;;;;;;25.88;15.13;;;;;;;;;;5091890;28;20036;-72
2023/10/31 06:18:03;;;;;;;22.98;15.20;;;;;;;;;;5091418;28;20428;-73
2023/10/31 06:20:29;;;;;;;21.38;13.60;;;;;;;;;;5093149;28;20099;-72
2023/10/31 06:22:55;;;;;;;22.30;14.15;;;;;;;;;;5095498;28;20063;-74
2023/10/31 06:25:21;;;;;;;24.58;15.40;;;;;;;;;;5100760;28;20028;-73
2023/10/31 06:27:47;;;;;;;22.65;15.38;;;;;;;;;;5097602;28;20480;-72
2023/10/31 06:30:13;;;;;;;21.40;15.02;;;;;;;;;;5095418;28;20095;-72
2023/10/31 06:32:40;;;;;;;22.35;14.93;;;;;;;;;;5093889;28;20035;-72
2023/10/31 06:35:07;;;;;;;23.08;15.52;;;;;;;;;;5095631;28;20357;-72
2023/10/31 06:37:32;;;;;;;20.85;14.38;;;;;;;;;;5095197;28;20016;-72
2023/10/31 06:39:58;;;;;;;21.60;14.25;;;;;;;;;;5096331;28;20035;-73
2023/10/31 06:42:24;;;;;;;22.10;15.55;;;;;;;;;;5095418;28;20020;-73
2023/10/31 06:44:51;;;;;;;21.83;14.48;;;;;;;;;;5097314;28;20028;-73
2023/10/31 06:47:17;;;;;;;22.70;15.23;;;;;;;;;;5097040;28;20024;-72
2023/10/31 06:49:42;;;;;;;25.48;15.93;;;;;;;;;;5095491;28;20026;-74
2023/10/31 06:52:08;;;;;;;23.20;16.25;;;;;;;;;;5094439;28;20024;-74
2023/10/31 06:54:34;;;;;;;24.70;16.67;;;;;;;;;;5094945;28;20020;-73
2023/10/31 06:57:01;;;;;;;24.05;14.93;;;;;;;;;;5094892;28;20016;-73
2023/10/31 06:59:29;;;;;;;25.80;17.15;;;;;;;;;;5094451;28;20395;-72
2023/10/31 07:01:55;;;;;;;24.20;16.58;;;;;;;;;;5093871;28;20495;-73
2023/10/31 07:04:21;;;;;;;22.30;15.75;;;;;;;;;;5094649;28;20052;-72
2023/10/31 07:06:47;;;;;;;22.75;15.15;;;;;;;;;;5095700;28;20023;-74
2023/10/31 07:09:14;;;;;;;31.02;18.63;;;;;;;;;;5095371;28;20387;-73
2023/10/31 07:11:40;;;;;;;24.27;16.42;;;;;;;;;;5096640;28;20027;-74
2023/10/31 07:14:06;;;;;;;24.33;16.42;;;;;;;;;;5096768;28;20020;-73
2023/10/31 07:16:33;;;;;;;24.45;16.67;;;;;;;;;;5094213;28;20119;-73
2023/10/31 07:18:59;;;;;;;20.75;15.32;;;;;;;;;;5094013;28;20032;-73
2023/10/31 07:21:26;;;;;;;21.40;14.77;;;;;;;;;;5094308;28;20024;-73
2023/10/31 07:23:52;;;;;;;18.35;12.57;;;;;;;;;;5078409;28;20028;-74
2023/10/31 07:26:18;;;;;;;21.85;12.85;;;;;;;;;;5095643;28;20070;-74
2023/10/31 07:28:44;;;;;;;17.33;12.38;;;;;;;;;;5095183;28;20058;-74
2023/10/31 07:31:10;;;;;;;13.23;9.60;;;;;;;;;;5093165;28;20447;-74
2023/10/31 07:33:36;;;;;;;16.35;10.70;;;;;;;;;;5092818;28;20039;-73
2023/10/31 07:36:02;;;;;;;13.35;9.48;;;;;;;;;;5093680;28;20024;-74
2023/10/31 07:38:28;;;;;;;15.60;9.43;;;;;;;;;;5093660;28;20541;-72
2023/10/31 07:40:54;;;;;;;13.85;8.10;;;;;;;;;;5096351;28;20028;-74
2023/10/31 07:43:20;;;;;;;11.20;7.85;;;;;;;;;;5095614;28;20028;-74
2023/10/31 07:45:46;;;;;;;11.18;7.65;;;;;;;;;;5093906;28;20394;-72
2023/10/31 07:48:12;;;;;;;11.60;9.45;;;;;;;;;;5093901;28;20058;-73
2023/10/31 07:50:38;;;;;;;11.05;9.25;;;;;;;;;;5093861;28;20089;-72
2023/10/31 07:53:04;;;;;;;16.00;12.73;;;;;;;;;;5093064;28;20483;-73
2023/10/31 07:55:30;;;;;;;15.98;12.15;;;;;;;;;;5094147;28;20028;-74
2023/10/31 07:57:57;;;;;;;15.77;12.77;;;;;;;;;;5093800;28;20060;-74
2023/10/31 08:00:23;;;;;;;17.13;12.68;;;;;;;;;;5093172;28;20032;-73
2023/10/31 08:02:49;;;;;;;12.73;10.50;;;;;;;;;;5092750;28;20073;-73
2023/10/31 08:05:15;;;;;;;18.08;9.25;;;;;;;;;;5093415;28;20028;-73
2023/10/31 08:07:41;;;;;;;6.63;5.35;;;;;;;;;;5095951;28;20044;-72
2023/10/31 08:10:08;;;;;;;7.13;3.92;;;;;;;;;;5094413;28;20460;-73
2023/10/31 08:12:33;;;;;;;4.28;2.80;;;;;;;;;;5092659;28;20361;-72
2023/10/31 08:15:00;;;;;;;2.53;1.83;;;;;;;;;;5092924;28;20103;-73
2023/10/31 08:17:26;;;;;;;3.05;1.58;;;;;;;;;;5091613;28;20048;-74
2023/10/31 08:19:52;;;;;;;1.80;1.20;;;;;;;;;;5094773;28;20119;-77
2023/10/31 08:22:18;;;;;;;3.33;2.00;;;;;;;;;;5096354;28;20084;-73
2023/10/31 08:24:44;;;;;;;3.50;2.33;;;;;;;;;;5093053;28;20020;-74
2023/10/31 08:27:11;;;;;;;2.97;2.25;;;;;;;;;;5093069;28;20471;-73
2023/10/31 08:29:37;;;;;;;5.80;2.45;;;;;;;;;;5092412;28;20042;-73
2023/10/31 08:32:03;;;;;;;11.90;7.07;;;;;;;;;;5092090;28;20507;-74
2023/10/31 08:34:29;;;;;;;5.25;2.92;;;;;;;;;;5092600;28;20027;-74
2023/10/31 08:36:56;;;;;;;9.68;6.28;;;;;;;;;;5093936;28;20082;-73
2023/10/31 08:39:22;;;;;;;5.57;3.90;;;;;;;;;;5095829;28;20025;-74
2023/10/31 08:41:52;;;;;;;3.50;3.20;;;;;;;;;;5092095;28;20031;-74
2023/10/31 08:44:18;;;;;;;8.05;3.22;;;;;;;;;;5092052;28;20063;-73
2023/10/31 08:46:44;;;;;;;2.63;2.20;;;;;;;;;;5092102;28;20422;-72
2023/10/31 08:49:10;;;;;;;3.10;2.05;;;;;;;;;;5090768;28;20024;-73
2023/10/31 08:51:36;;;;;;;5.57;1.77;;;;;;;;;;5093635;28;20491;-73
2023/10/31 08:54:02;;;;;;;2.70;1.70;;;;;;;;;;5094396;28;20052;-73
2023/10/31 08:56:28;;;;;;;2.35;1.30;;;;;;;;;;5095748;28;20082;-73
2023/10/31 08:58:54;;;;;;;3.45;1.70;;;;;;;;;;5096875;28;20084;-72
2023/10/31 09:01:20;;;;;;;2.35;1.65;;;;;;;;;;5079716;28;20076;-73
2023/10/31 09:03:46;;;;;;;4.70;1.73;;;;;;;;;;5097757;28;20028;-74
2023/10/31 09:06:12;;;;;;;4.07;1.40;;;;;;;;;;5098165;28;20060;-72
2023/10/31 09:08:38;;;;;;;2.88;1.38;;;;;;;;;;5092245;28;20077;-72
2023/10/31 09:11:05;;;;;;;3.33;1.83;;;;;;;;;;5092347;28;20471;-72
2023/10/31 09:13:31;;;;;;;5.78;1.67;;;;;;;;;;5091810;28;20059;-73
2023/10/31 09:16:00;;;;;;;6.60;2.22;;;;;;;;;;5092036;28;20028;-73
2023/10/31 09:18:26;;;;;;;8.05;1.77;;;;;;;;;;5092021;28;20020;-73
2023/10/31 09:20:52;;;;;;;3.30;1.75;;;;;;;;;;5092065;28;20024;-72
2023/10/31 09:23:18;;;;;;;9.75;5.55;;;;;;;;;;5091510;28;20036;-73
2023/10/31 09:25:44;;;;;;;3.53;1.90;;;;;;;;;;5091925;28;20407;-72
2023/10/31 09:28:11;;;;;;;3.45;2.50;;;;;;;;;;5091755;28;20120;-72
2023/10/31 09:30:37;;;;;;;4.60;2.05;;;;;;;;;;5091734;28;20030;-73
2023/10/31 09:33:03;;;;;;;2.92;1.67;;;;;;;;;;5094579;28;20114;-73
2023/10/31 09:35:29;;;;;;;1.20;0.60;;;;;;;;;;5096021;28;20089;-72
2023/10/31 09:37:55;;;;;;;0.90;0.80;;;;;;;;;;5096266;28;20055;-74
2023/10/31 09:40:21;;;;;;;0.60;0.52;;;;;;;;;;5095809;28;20532;-76
2023/10/31 09:42:48;;;;;;;0.77;0.50;;;;;;;;;;5090243;28;20590;-77
2023/10/31 09:45:14;;;;;;;0.80;0.35;;;;;;;;;;5091898;28;20312;-73
2023/10/31 09:47:42;;;;;;;0.60;0.38;;;;;;;;;;5090434;28;20066;-73
2023/10/31 09:50:09;;;;;;;0.30;0.30;;;;;;;;;;5091851;28;20117;-73
2023/10/31 09:52:35;;;;;;;0.88;0.50;;;;;;;;;;5091386;28;20023;-75
2023/10/31 09:55:03;;;;;;;1.85;0.32;;;;;;;;;;5092560;28;20156;-75
2023/10/31 09:57:30;;;;;;;0.75;0.40;;;;;;;;;;5095802;28;20608;-72
2023/10/31 09:59:56;;;;;;;1.40;0.85;;;;;;;;;;5095816;28;20027;-74
2023/10/31 10:02:22;;;;;;;2.95;0.70;;;;;;;;;;5095670;28;20391;-76
2023/10/31 10:04:50;;;;;;;0.85;0.60;;;;;;;;;;5095785;28;20024;-74
2023/10/31 10:07:17;;;;;;;1.27;0.90;;;;;;;;;;5095769;28;20024;-74
2023/10/31 10:09:44;;;;;;;1.75;0.50;;;;;;;;;;5095648;28;20024;-72
2023/10/31 10:12:12;;;;;;;1.50;0.80;;;;;;;;;;5095348;28;20044;-74
2023/10/31 10:14:39;;;;;;;2.28;0.93;;;;;;;;;;5095657;28;20020;-73
2023/10/31 10:17:14;;;;;;;2.88;0.95;;;;;;;;;;5095585;28;20057;-74
2023/10/31 10:19:40;;;;;;;2.45;0.60;;;;;;;;;;5094063;28;20020;-72
2023/10/31 10:22:06;;;;;;;3.22;0.77;;;;;;;;;;5095010;28;20077;-73
2023/10/31 10:24:32;;;;;;;1.42;0.70;;;;;;;;;;5095130;28;20016;-74
2023/10/31 10:26:58;;;;;;;3.33;0.82;;;;;;;;;;5095133;28;20120;-73
2023/10/31 10:29:26;;;;;;;3.13;1.23;;;;;;;;;;5095230;28;20016;-73
2023/10/31 10:31:52;;;;;;;4.78;1.13;;;;;;;;;;5094921;28;20039;-73
2023/10/31 10:34:18;;;;;;;2.72;0.73;;;;;;;;;;5094991;28;20073;-73
2023/10/31 10:36:49;;;;;;;3.72;0.85;;;;;;;;;;5095426;28;20027;-75
2023/10/31 10:39:18;;;;;;;3.80;0.80;;;;;;;;;;5095766;28;20020;-73
2023/10/31 10:41:46;;;;;;;5.10;3.05;;;;;;;;;;5096023;28;20027;-74
2023/10/31 10:44:13;;;;;;;3.80;1.48;;;;;;;;;;5095296;28;20028;-74
2023/10/31 10:46:40;;;;;;;1.50;0.90;;;;;;;;;;5094929;28;20020;-74
2023/10/31 10:49:07;;;;;;;2.08;1.00;;;;;;;;;;5094779;28;20063;-74
2023/10/31 10:51:33;;;;;;;2.10;1.05;;;;;;;;;;5094244;28;20048;-74
2023/10/31 10:54:05;;;;;;;2.47;0.93;;;;;;;;;;5094624;28;20491;-75
2023/10/31 10:56:37;;;;;;;2.55;1.10;;;;;;;;;;5094826;28;20028;-74
2023/10/31 10:59:04;;;;;;;6.13;1.50;;;;;;;;;;5092883;28;20058;-75
2023/10/31 11:01:33;;;;;;;5.97;1.60;;;;;;;;;;5094171;28;20490;-77
2023/10/31 11:03:59;;;;;;;5.50;2.22;;;;;;;;;;5094305;28;20036;-74
2023/10/31 11:06:26;;;;;;;4.20;1.50;;;;;;;;;;5094037;28;20406;-74
2023/10/31 11:08:52;;;;;;;2.50;0.95;;;;;;;;;;5094327;28;20031;-74
2023/10/31 11:11:19;;;;;;;5.07;1.15;;;;;;;;;;5094027;28;20024;-73
2023/10/31 11:13:45;;;;;;;3.00;1.30;;;;;;;;;;5094165;28;20024;-74
2023/10/31 11:16:17;;;;;;;2.80;1.67;;;;;;;;;;5094369;28;20107;-73
2023/10/31 11:18:44;;;;;;;6.13;1.90;;;;;;;;;;5093903;28;20024;-73
2023/10/31 11:21:10;;;;;;;6.03;1.50;;;;;;;;;;5093843;28;20024;-73
2023/10/31 11:23:36;;;;;;;2.22;1.00;;;;;;;;;;5093858;28;20027;-72
2023/10/31 11:26:03;;;;;;;5.03;1.42;;;;;;;;;;5094338;28;20137;-73
2023/10/31 11:28:29;;;;;;;6.20;1.80;;;;;;;;;;5096482;28;20479;-74
2023/10/31 11:31:00;;;;;;;3.33;1.50;;;;;;;;;;5098109;28;20024;-72
2023/10/31 11:33:27;;;;;;;5.78;2.10;;;;;;;;;;5098358;28;20471;-73
2023/10/31 11:36:00;;;;;;;5.75;1.30;;;;;;;;;;5102862;28;20032;-73
2023/10/31 11:38:35;;;;;;;4.25;1.95;;;;;;;;;;5099188;28;20032;-74
2023/10/31 11:41:02;;;;;;;3.90;1.50;;;;;;;;;;5098205;28;20028;-73
2023/10/31 11:43:39;;;;;;;3.50;1.35;;;;;;;;;;5093542;28;20051;-72
2023/10/31 11:46:06;;;;;;;3.33;1.80;;;;;;;;;;5094733;28;20415;-72
2023/10/31 11:48:46;;;;;;;10.55;1.95;;;;;;;;;;5095170;28;20016;-72
2023/10/31 11:51:13;;;;;;;4.93;1.60;;;;;;;;;;5093226;28;20020;-71
2023/10/31 11:53:40;;;;;;;7.35;1.52;;;;;;;;;;5093134;28;20028;-73
2023/10/31 11:56:06;;;;;;;4.68;1.77;;;;;;;;;;5093050;28;20024;-71
2023/10/31 11:58:32;;;;;;;3.28;1.73;;;;;;;;;;5093212;28;20056;-72
2023/10/31 12:01:02;;;;;;;5.38;2.30;;;;;;;;;;5096907;28;20054;-74
2023/10/31 12:03:28;;;;;;;4.90;1.85;;;;;;;;;;5096795;28;20027;-73
2023/10/31 12:05:59;;;;;;;7.10;2.70;;;;;;;;;;5093169;28;20028;-74
2023/10/31 12:08:30;;;;;;;4.18;2.40;;;;;;;;;;5092677;28;20539;-72
2023/10/31 12:11:08;;;;;;;4.35;1.90;;;;;;;;;;5092806;28;20051;-73
2023/10/31 12:13:35;;;;;;;3.83;1.73;;;;;;;;;;5093132;28;20103;-74
2023/10/31 12:16:01;;;;;;;2.60;1.30;;;;;;;;;;5092996;28;20104;-74
2023/10/31 12:18:28;;;;;;;3.83;1.20;;;;;;;;;;5092274;28;20031;-75
2023/10/31 12:20:54;;;;;;;3.13;1.30;;;;;;;;;;5093480;28;20035;-72
2023/10/31 12:23:20;;;;;;;3.85;1.30;;;;;;;;;;5095556;28;20448;-74
2023/10/31 12:25:53;;;;;;;2.08;1.02;;;;;;;;;;5102045;28;20031;-73
2023/10/31 12:28:22;;;;;;;2.17;1.25;;;;;;;;;;5112789;28;20025;-72
2023/10/31 12:30:49;;;;;;;3.90;1.42;;;;;;;;;;5100471;28;20112;-76
2023/10/31 12:33:15;;;;;;;2.85;1.23;;;;;;;;;;5093827;28;20027;-73
2023/10/31 12:35:41;;;;;;;2.45;1.10;;;;;;;;;;5092665;28;20387;-73
2023/10/31 12:38:08;;;;;;;4.45;1.55;;;;;;;;;;5092529;28;20032;-73
2023/10/31 12:40:34;;;;;;;2.83;1.40;;;;;;;;;;5092544;28;20028;-73
2023/10/31 12:43:02;;;;;;;3.75;1.23;;;;;;;;;;5091711;28;20073;-73
2023/10/31 12:45:28;;;;;;;3.00;1.02;;;;;;;;;;5091140;28;20056;-72
2023/10/31 12:48:04;;;;;;;3.95;0.95;;;;;;;;;;5092283;28;20471;-74
2023/10/31 12:50:30;;;;;;;2.30;1.25;;;;;;;;;;5092275;28;20020;-72
2023/10/31 12:52:57;;;;;;;1.95;1.02;;;;;;;;;;5091927;28;20478;-73
2023/10/31 12:55:24;;;;;;;4.40;1.13;;;;;;;;;;5092206;28;20032;-73
2023/10/31 12:57:51;;;;;;;5.40;1.50;;;;;;;;;;5092373;28;20256;-74
2023/10/31 13:00:24;;;;;;;4.95;1.95;;;;;;;;;;5092411;28;20032;-73
2023/10/31 13:02:50;;;;;;;5.20;2.15;;;;;;;;;;5091607;28;20044;-74
2023/10/31 13:05:16;;;;;;;4.75;1.42;;;;;;;;;;5092049;28;20032;-74
2023/10/31 13:07:49;;;;;;;1.98;0.80;;;;;;;;;;5092262;28;20024;-74
2023/10/31 13:10:16;;;;;;;3.85;1.10;;;;;;;;;;5094808;28;20031;-73
2023/10/31 13:12:46;;;;;;;3.28;1.27;;;;;;;;;;5094484;28;20074;-73
2023/10/31 13:15:13;;;;;;;7.70;1.80;;;;;;;;;;5095349;28;20417;-73
2023/10/31 13:17:41;;;;;;;5.20;1.20;;;;;;;;;;5092326;28;20046;-73
2023/10/31 13:20:09;;;;;;;4.32;2.05;;;;;;;;;;5093689;28;20024;-73
2023/10/31 13:22:35;;;;;;;6.78;2.05;;;;;;;;;;5098154;28;20085;-74
2023/10/31 13:25:04;;;;;;;6.70;2.20;;;;;;;;;;5092042;28;20016;-73
2023/10/31 13:27:30;;;;;;;7.70;2.63;;;;;;;;;;5091829;28;20095;-73
2023/10/31 13:29:56;;;;;;;5.32;2.65;;;;;;;;;;5090979;28;20468;-78
2023/10/31 13:32:22;;;;;;;10.98;4.07;;;;;;;;;;5094296;28;20107;-78
2023/10/31 13:34:48;;;;;;;4.85;2.17;;;;;;;;;;5091825;28;20081;-73
2023/10/31 13:37:14;;;;;;;7.22;2.22;;;;;;;;;;5093342;28;20024;-74
2023/10/31 13:39:40;;;;;;;6.18;2.40;;;;;;;;;;5093082;28;20135;-74
2023/10/31 13:42:06;;;;;;;7.90;2.78;;;;;;;;;;5091436;28;20068;-74
2023/10/31 13:44:33;;;;;;;4.85;3.10;;;;;;;;;;5092874;28;20213;-74
2023/10/31 13:46:59;;;;;;;4.95;1.80;;;;;;;;;;5095056;28;20024;-73
2023/10/31 13:49:25;;;;;;;7.40;1.92;;;;;;;;;;5091452;28;20036;-74
2023/10/31 13:51:51;;;;;;;3.85;2.30;;;;;;;;;;5091209;28;20046;-73
2023/10/31 13:54:17;;;;;;;2.95;1.27;;;;;;;;;;5091566;28;20021;-73
2023/10/31 13:56:43;;;;;;;2.13;1.42;;;;;;;;;;5091684;28;20024;-73
2023/10/31 13:59:09;;;;;;;2.92;1.63;;;;;;;;;;5091675;28;20024;-74
2023/10/31 14:01:35;;;;;;;6.65;2.42;;;;;;;;;;5093773;28;20054;-75
2023/10/31 14:04:01;;;;;;;4.65;2.58;;;;;;;;;;5094804;28;20032;-74
2023/10/31 14:06:30;;;;;;;2.67;1.67;;;;;;;;;;5100956;28;20024;-74
2023/10/31 14:08:56;;;;;;;2.42;1.75;;;;;;;;;;5107063;28;20031;-73
2023/10/31 14:11:22;;;;;;;4.30;1.50;;;;;;;;;;5093632;28;20016;-73
2023/10/31 14:13:50;;;;;;;3.80;2.08;;;;;;;;;;5093589;28;20028;-73
2023/10/31 14:16:16;;;;;;;4.35;2.80;;;;;;;;;;5091069;28;20024;-74
2023/10/31 14:18:42;;;;;;;7.85;3.13;;;;;;;;;;5091127;28;20031;-74
2023/10/31 14:21:09;;;;;;;6.88;2.47;;;;;;;;;;5091471;28;20085;-74
2023/10/31 14:23:35;;;;;;;6.05;2.85;;;;;;;;;;5091192;28;20401;-74
2023/10/31 14:26:01;;;;;;;4.40;2.65;;;;;;;;;;5091236;28;20020;-74
2023/10/31 14:28:27;;;;;;;5.55;3.60;;;;;;;;;;5091032;28;20016;-75